Time;durP1;ratioP1;P1;durP2;ratioP2;P2;SDS_P1;SDS_P2;PMS_P1;PMS_P2;Temp;Humidity;BMP_temperature;BMP_pressure;BME280_temperature;BME280_humidity;BME280_pressure;Samples;Min_cycle;Max_cycle;Signal;HPM_P1;HPM_P2
2024/03/03 00:02:25;;;;;;;25.37;17.60;;;8.40;99.90;;;;;;5047030;28;20186;-87
2024/03/03 00:04:50;;;;;;;24.17;17.58;;;11.30;99.90;;;;;;5048082;28;20287;-87
2024/03/03 00:07:16;;;;;;;21.50;17.33;;;;;;;;;;5045898;28;20285;-88
2024/03/03 00:09:45;;;;;;;24.67;18.60;;;9.40;99.90;;;;;;5061922;28;20278;-87
2024/03/03 00:12:11;;;;;;;26.52;17.98;;;10.30;99.90;;;;;;5026493;28;20652;-87
2024/03/03 00:14:37;;;;;;;27.77;18.95;;;10.30;99.90;;;;;;5046752;28;20186;-87
2024/03/03 00:17:03;;;;;;;24.43;18.07;;;10.20;99.90;;;;;;5046452;28;20207;-87
2024/03/03 00:19:29;;;;;;;30.15;18.80;;;;;;;;;;5046992;28;20183;-87
2024/03/03 00:21:55;;;;;;;25.88;19.20;;;9.40;99.90;;;;;;5047012;28;20184;-87
2024/03/03 00:24:35;;;;;;;25.10;19.40;;;10.50;99.90;;;;;;5046432;28;20529;-88
2024/03/03 00:27:02;;;;;;;27.10;20.13;;;;;;;;;;5043909;28;20221;-86
2024/03/03 00:29:29;;;;;;;26.58;19.23;;;;;;;;;;5044570;28;20184;-87
2024/03/03 00:31:54;;;;;;;26.30;19.20;;;;;;;;;;5044029;28;20199;-87
2024/03/03 00:34:22;;;;;;;25.80;18.73;;;9.30;99.90;;;;;;5046578;28;20317;-88
2024/03/03 00:36:47;;;;;;;23.88;18.73;;;10.60;99.90;;;;;;5046266;28;20448;-87
2024/03/03 00:39:13;;;;;;;24.53;17.33;;;;;;;;;;5045648;28;20190;-86
2024/03/03 00:41:39;;;;;;;24.40;18.50;;;9.40;99.90;;;;;;5027230;28;20488;-87
2024/03/03 00:44:05;;;;;;;27.73;19.23;;;;;;;;;;5041245;28;20187;-87
2024/03/03 00:46:30;;;;;;;25.30;19.13;;;9.20;99.90;;;;;;5044271;28;20211;-87
2024/03/03 00:48:56;;;;;;;24.60;18.47;;;;;;;;;;5045562;28;20293;-87
2024/03/03 00:51:22;;;;;;;25.85;18.65;;;9.30;99.90;;;;;;5047075;28;20675;-87
2024/03/03 00:53:48;;;;;;;25.27;18.70;;;;;;;;;;5027557;28;20308;-88
2024/03/03 00:56:14;;;;;;;27.08;19.17;;;9.40;99.90;;;;;;5047425;28;20265;-87
2024/03/03 00:58:41;;;;;;;27.35;19.17;;;9.00;99.90;;;;;;5047019;28;20550;-87
2024/03/03 01:01:06;;;;;;;27.90;20.27;;;;;;;;;;5048709;28;20229;-87
2024/03/03 01:03:32;;;;;;;26.48;18.63;;;;;;;;;;5051330;28;20217;-87
2024/03/03 01:05:58;;;;;;;25.83;18.13;;;;;;;;;;5047270;28;20284;-87
2024/03/03 01:08:24;;;;;;;29.80;20.10;;;9.20;99.90;;;;;;5049402;28;20820;-87
2024/03/03 01:10:50;;;;;;;27.63;20.97;;;;;;;;;;5048565;28;20450;-87
2024/03/03 01:13:16;;;;;;;24.80;18.65;;;;;;;;;;5047846;28;20233;-87
2024/03/03 01:15:42;;;;;;;28.02;19.60;;;;;;;;;;5049668;28;20234;-87
2024/03/03 01:18:08;;;;;;;27.23;17.85;;;9.50;99.90;;;;;;5050134;28;20189;-87
2024/03/03 01:20:33;;;;;;;30.63;20.33;;;10.00;99.90;;;;;;5049186;28;20190;-87
2024/03/03 01:22:59;;;;;;;25.30;18.60;;;;;;;;;;5047759;28;20219;-86
2024/03/03 01:25:28;;;;;;;29.83;20.42;;;;;;;;;;5049276;28;20207;-87
2024/03/03 01:27:54;;;;;;;25.65;18.42;;;;;;;;;;5049772;28;20175;-87
2024/03/03 01:30:21;;;;;;;27.70;19.40;;;9.30;99.90;;;;;;5049923;28;20196;-87
2024/03/03 01:32:47;;;;;;;28.80;20.25;;;;;;;;;;5049540;28;20480;-87
2024/03/03 01:35:13;;;;;;;27.83;19.00;;;;;;;;;;5049369;28;20216;-88
2024/03/03 01:37:38;;;;;;;29.70;19.60;;;8.90;99.90;;;;;;5047917;28;20514;-87
2024/03/03 01:40:05;;;;;;;28.57;19.63;;;;;;;;;;5044428;28;20255;-86
2024/03/03 01:42:31;;;;;;;28.10;19.02;;;;;;;;;;5049943;28;20187;-87
2024/03/03 01:44:56;;;;;;;30.88;20.75;;;8.60;99.90;;;;;;5047142;28;20581;-86
2024/03/03 01:47:23;;;;;;;29.10;21.00;;;;;;;;;;5049156;28;20190;-85
2024/03/03 01:49:54;;;;;;;30.38;20.10;;;8.80;99.90;;;;;;5044270;28;20570;-85
2024/03/03 01:52:20;;;;;;;29.63;20.20;;;;;;;;;;5050122;28;20238;-86
2024/03/03 01:54:46;;;;;;;27.23;20.10;;;8.80;99.90;;;;;;5049788;28;20185;-86
2024/03/03 01:57:18;;;;;;;29.67;19.83;;;8.70;99.90;;;;;;5050900;28;20203;-87
2024/03/03 01:59:45;;;;;;;30.70;20.20;;;;;;;;;;5051755;28;20185;-87
2024/03/03 02:02:11;;;;;;;26.58;19.85;;;;;;;;;;5057782;28;20182;-86
2024/03/03 02:04:37;;;;;;;29.33;20.08;;;;;;;;;;5051732;28;20800;-86
2024/03/03 02:07:03;;;;;;;27.88;20.10;;;8.50;99.90;;;;;;5049617;28;20206;-85
2024/03/03 02:09:29;;;;;;;27.93;19.60;;;;;;;;;;5050779;28;20205;-86
2024/03/03 02:11:56;;;;;;;30.57;21.60;;;;;;;;;;5045969;28;20467;-86
2024/03/03 02:14:21;;;;;;;29.17;20.38;;;8.50;99.90;;;;;;5047338;28;20857;-87
2024/03/03 02:16:47;;;;;;;29.80;19.33;;;;;;;;;;5048766;28;20198;-86
2024/03/03 02:19:13;;;;;;;32.00;21.45;;;;;;;;;;5047652;28;20269;-87
2024/03/03 02:21:40;;;;;;;31.23;21.00;;;8.50;99.90;;;;;;5046277;28;20281;-86
2024/03/03 02:24:06;;;;;;;30.42;21.52;;;7.60;99.90;;;;;;5048611;28;20822;-87
2024/03/03 02:26:32;;;;;;;30.93;20.40;;;9.80;99.90;;;;;;5047434;28;20247;-87
2024/03/03 02:28:58;;;;;;;30.23;21.35;;;;;;;;;;5047514;28;20198;-86
2024/03/03 02:31:25;;;;;;;32.05;21.08;;;;;;;;;;5048311;28;20182;-86
2024/03/03 02:33:52;;;;;;;32.50;21.60;;;;;;;;;;5049258;28;20347;-86
2024/03/03 02:36:17;;;;;;;29.92;20.92;;;8.00;99.90;;;;;;5049061;28;20205;-85
2024/03/03 02:38:46;;;;;;;31.10;20.70;;;8.20;99.90;;;;;;5044493;28;20184;-87
2024/03/03 02:41:12;;;;;;;32.35;22.42;;;;;;;;;;5044958;28;20263;-86
2024/03/03 02:43:38;;;;;;;30.63;22.60;;;;;;;;;;5046707;28;20197;-84
2024/03/03 02:46:03;;;;;;;35.83;23.50;;;8.30;99.90;;;;;;5042233;28;20239;-86
2024/03/03 02:48:30;;;;;;;33.03;21.55;;;8.40;99.90;;;;;;5050114;28;20546;-85
2024/03/03 02:50:56;;;;;;;33.80;22.42;;;9.50;99.90;;;;;;5048286;28;20441;-86
2024/03/03 02:53:23;;;;;;;31.97;21.47;;;9.00;99.90;;;;;;5046099;28;20205;-87
2024/03/03 02:55:51;;;;;;;30.95;22.77;;;9.40;99.90;;;;;;5085541;23;20221;-86
2024/03/03 02:58:17;;;;;;;33.60;22.17;;;8.60;99.90;;;;;;5049024;28;20197;-86
2024/03/03 03:00:43;;;;;;;32.87;22.20;;;8.30;99.90;;;;;;5045207;28;20192;-86
2024/03/03 03:03:09;;;;;;;30.88;20.58;;;8.90;99.90;;;;;;5046289;28;20244;-87
2024/03/03 03:05:35;;;;;;;31.07;21.70;;;;;;;;;;5064706;28;20206;-87
2024/03/03 03:08:00;;;;;;;33.05;22.83;;;8.10;99.90;;;;;;5049918;28;20716;-86
2024/03/03 03:10:26;;;;;;;36.90;23.07;;;;;;;;;;5047905;28;20243;-86
2024/03/03 03:12:52;;;;;;;29.70;21.88;;;7.90;99.90;;;;;;5048934;28;20212;-86
2024/03/03 03:15:18;;;;;;;30.50;22.10;;;;;;;;;;5049135;28;20205;-86
2024/03/03 03:17:44;;;;;;;34.47;22.95;;;7.70;99.90;;;;;;5050494;28;20189;-85
2024/03/03 03:20:10;;;;;;;30.20;22.13;;;10.00;99.90;;;;;;5060859;28;20327;-86
2024/03/03 03:22:36;;;;;;;30.33;21.15;;;7.60;99.90;;;;;;5064215;28;20589;-86
2024/03/03 03:25:02;;;;;;;33.97;23.53;;;;;;;;;;5044392;28;20284;-85
2024/03/03 03:27:28;;;;;;;35.50;23.10;;;;;;;;;;5045439;28;20177;-86
2024/03/03 03:29:53;;;;;;;31.20;22.63;;;7.40;99.90;;;;;;5042166;28;20304;-85
2024/03/03 03:32:19;;;;;;;34.73;23.13;;;;;;;;;;5044650;28;20448;-85
2024/03/03 03:34:46;;;;;;;37.00;23.60;;;;;;;;;;5048914;28;20208;-85
2024/03/03 03:37:15;;;;;;;35.00;24.98;;;7.50;99.90;;;;;;5048183;28;20273;-85
2024/03/03 03:39:42;;;;;;;34.47;24.63;;;8.90;99.90;;;;;;5047874;28;20181;-87
2024/03/03 03:42:08;;;;;;;35.10;25.40;;;;;;;;;;5047232;28;20243;-85
2024/03/03 03:44:34;;;;;;;36.22;24.38;;;7.70;99.90;;;;;;5052257;28;20185;-85
2024/03/03 03:47:00;;;;;;;39.38;25.60;;;8.20;99.90;;;;;;5047411;28;20210;-86
2024/03/03 03:49:26;;;;;;;35.90;25.20;;;6.90;99.90;;;;;;5047525;28;20174;-85
2024/03/03 03:51:54;;;;;;;34.27;23.93;;;;;;;;;;5048281;28;20708;-85
2024/03/03 03:54:19;;;;;;;38.47;25.02;;;7.90;99.90;;;;;;5056411;28;20535;-86
2024/03/03 03:56:45;;;;;;;37.70;24.17;;;;;;;;;;5051175;28;20513;-85
2024/03/03 03:59:11;;;;;;;36.30;25.23;;;;;;;;;;5049140;28;20193;-86
2024/03/03 04:01:37;;;;;;;35.65;24.90;;;;;;;;;;5061918;28;20606;-85
2024/03/03 04:04:04;;;;;;;38.03;26.08;;;;;;;;;;5049931;28;20189;-86
2024/03/03 04:06:30;;;;;;;34.20;23.88;;;7.70;99.90;;;;;;5050011;28;20209;-84
2024/03/03 04:08:56;;;;;;;36.23;24.87;;;;;;;;;;5050608;28;20211;-86
2024/03/03 04:11:22;;;;;;;36.78;25.30;;;7.60;99.90;;;;;;5047868;28;20190;-85
2024/03/03 04:13:48;;;;;;;37.85;24.25;;;8.40;99.90;;;;;;5046731;28;20201;-85
2024/03/03 04:16:14;;;;;;;34.22;23.85;;;5.90;99.90;;;;;;5047760;28;20210;-85
2024/03/03 04:18:42;;;;;;;41.43;25.70;;;9.00;99.90;;;;;;5047847;28;20182;-85
2024/03/03 04:21:08;;;;;;;40.40;25.80;;;8.90;99.90;;;;;;5047263;28;20432;-85
2024/03/03 04:23:33;;;;;;;38.07;24.43;;;7.50;99.90;;;;;;5044868;28;20189;-86
2024/03/03 04:26:00;;;;;;;40.80;26.70;;;;;;;;;;5048343;28;20553;-85
2024/03/03 04:28:25;;;;;;;32.63;22.85;;;7.20;99.90;;;;;;5049737;28;20186;-84
2024/03/03 04:30:51;;;;;;;37.37;25.63;;;;;;;;;;5051460;28;20551;-85
2024/03/03 04:33:20;;;;;;;34.53;22.98;;;7.30;99.90;;;;;;5049981;28;20641;-86
2024/03/03 04:35:46;;;;;;;38.30;24.15;;;;;;;;;;5049699;28;20724;-86
2024/03/03 04:38:11;;;;;;;34.27;23.50;;;7.30;99.90;;;;;;5051641;28;20189;-85
2024/03/03 04:40:37;;;;;;;42.10;25.07;;;;;;;;;;5048036;28;20841;-86
2024/03/03 04:43:03;;;;;;;37.53;25.30;;;7.20;99.90;;;;;;5051179;28;20289;-86
2024/03/03 04:45:29;;;;;;;33.83;22.27;;;7.70;99.90;;;;;;5050050;28;20446;-86
2024/03/03 04:47:55;;;;;;;37.00;23.90;;;;;;;;;;5048921;28;20193;-86
2024/03/03 04:50:21;;;;;;;36.60;23.08;;;7.40;99.90;;;;;;5050005;28;20209;-86
2024/03/03 04:52:47;;;;;;;39.20;23.87;;;;;;;;;;5051030;28;20740;-86
2024/03/03 04:55:13;;;;;;;37.13;24.92;;;7.30;99.90;;;;;;5066892;28;20288;-85
2024/03/03 04:57:39;;;;;;;33.97;23.70;;;;;;;;;;5050479;28;20723;-86
2024/03/03 05:00:08;;;;;;;33.38;22.42;;;7.30;99.90;;;;;;5049305;28;20557;-86
2024/03/03 05:02:34;;;;;;;33.25;23.33;;;7.00;99.90;;;;;;5052006;28;20186;-86
2024/03/03 05:05:00;;;;;;;35.95;22.42;;;7.20;99.90;;;;;;5051360;28;20224;-86
2024/03/03 05:07:27;;;;;;;33.80;22.20;;;;;;;;;;5050868;28;20234;-86
2024/03/03 05:09:53;;;;;;;34.42;23.10;;;7.40;99.90;;;;;;5052287;28;20443;-85
2024/03/03 05:12:18;;;;;;;32.33;21.93;;;7.20;99.90;;;;;;5052580;28;20189;-84
2024/03/03 05:14:44;;;;;;;33.57;23.70;;;7.40;99.90;;;;;;5050545;28;20492;-85
2024/03/03 05:17:10;;;;;;;34.67;22.93;;;;;;;;;;5053936;28;20213;-85
2024/03/03 05:19:36;;;;;;;35.40;24.48;;;7.40;99.90;;;;;;5047853;28;20182;-85
2024/03/03 05:22:02;;;;;;;35.33;23.53;;;;;;;;;;5052188;28;20186;-85
2024/03/03 05:24:29;;;;;;;35.47;22.40;;;;;;;;;;5051962;28;20196;-87
2024/03/03 05:26:55;;;;;;;34.85;23.73;;;7.40;99.90;;;;;;5048033;28;20201;-86
2024/03/03 05:29:21;;;;;;;34.53;23.13;;;;;;;;;;5047745;28;20658;-85
2024/03/03 05:31:47;;;;;;;38.70;23.30;;;;;;;;;;5043838;28;20446;-85
2024/03/03 05:34:13;;;;;;;30.87;22.17;;;6.90;99.90;;;;;;5048698;28;20580;-85
2024/03/03 05:36:42;;;;;;;35.10;22.93;;;7.50;99.90;;;;;;5047525;28;20487;-86
2024/03/03 05:39:15;;;;;;;41.50;25.63;;;7.30;99.90;;;;;;5045271;28;20243;-85
2024/03/03 05:41:41;;;;;;;38.95;23.40;;;7.30;99.90;;;;;;5043453;28;20733;-86
2024/03/03 05:44:08;;;;;;;36.58;22.83;;;7.90;99.90;;;;;;5046319;28;20182;-85
2024/03/03 05:46:37;;;;;;;37.20;24.50;;;7.00;99.90;;;;;;5043926;28;20215;-86
2024/03/03 05:49:03;;;;;;;35.75;22.95;;;6.20;99.90;;;;;;5048056;28;20194;-86
2024/03/03 05:51:29;;;;;;;30.63;22.60;;;;;;;;;;5058943;28;20768;-86
2024/03/03 05:53:55;;;;;;;31.48;20.45;;;6.70;99.90;;;;;;5045619;28;20221;-85
2024/03/03 05:56:21;;;;;;;33.60;22.90;;;;;;;;;;5046443;28;20215;-87
2024/03/03 05:58:47;;;;;;;35.63;22.52;;;7.10;99.90;;;;;;5049059;28;20431;-86
2024/03/03 06:01:13;;;;;;;34.10;23.50;;;7.10;99.90;;;;;;5044719;28;20273;-86
2024/03/03 06:03:42;;;;;;;37.57;23.97;;;6.80;99.90;;;;;;5047982;28;20440;-86
2024/03/03 06:06:17;;;;;;;39.67;23.23;;;5.80;99.90;;;;;;5048578;28;20207;-87
2024/03/03 06:08:45;;;;;;;36.55;24.27;;;;;;;;;;5051515;28;20194;-86
2024/03/03 06:11:11;;;;;;;35.70;22.50;;;;;;;;;;5047367;28;20194;-85
2024/03/03 06:13:37;;;;;;;33.63;22.50;;;;;;;;;;5063681;28;20217;-85
2024/03/03 06:16:03;;;;;;;38.60;23.40;;;7.20;99.90;;;;;;5048122;28;20216;-85
2024/03/03 06:18:30;;;;;;;39.00;22.87;;;;;;;;;;5049709;28;20174;-84
2024/03/03 06:20:56;;;;;;;34.53;24.42;;;;;;;;;;5050003;28;20437;-84
2024/03/03 06:23:22;;;;;;;37.67;24.25;;;7.00;99.90;;;;;;5049696;28;20204;-88
2024/03/03 06:25:50;;;;;;;38.57;23.80;;;8.20;99.90;;;;;;5056321;28;20201;-89
2024/03/03 06:28:16;;;;;;;31.13;21.50;;;7.40;99.90;;;;;;5038527;28;20956;-88
2024/03/03 06:30:42;;;;;;;33.57;22.20;;;7.10;99.90;;;;;;5049119;28;20185;-89
2024/03/03 06:33:10;;;;;;;31.38;22.17;;;7.20;99.90;;;;;;5047991;28;20213;-89
2024/03/03 06:35:36;;;;;;;32.70;22.95;;;7.30;99.90;;;;;;5052750;28;20568;-88
2024/03/03 06:38:01;;;;;;;29.30;20.17;;;7.40;99.90;;;;;;5051739;28;20269;-88
2024/03/03 06:40:27;;;;;;;30.37;22.00;;;7.70;99.90;;;;;;5052149;28;20443;-90
2024/03/03 06:42:52;;;;;;;34.37;23.00;;;8.00;99.90;;;;;;5050785;28;20193;-91
2024/03/03 06:45:18;;;;;;;33.10;21.87;;;9.70;99.90;;;;;;5052156;28;20194;-89
2024/03/03 06:47:44;;;;;;;31.77;21.57;;;7.20;99.90;;;;;;5063281;28;20217;-90
2024/03/03 06:50:09;;;;;;;34.50;22.20;;;7.90;99.90;;;;;;5027913;28;20276;-91
2024/03/03 06:52:35;;;;;;;31.97;22.30;;;8.20;99.90;;;;;;5054358;28;20683;-89
2024/03/03 06:55:01;;;;;;;27.63;19.53;;;8.30;99.90;;;;;;5057097;28;20590;-88
2024/03/03 06:57:27;;;;;;;31.52;21.35;;;8.20;99.90;;;;;;5047193;28;20534;-90
2024/03/03 06:59:53;;;;;;;33.33;22.07;;;8.70;99.90;;;;;;5049343;28;20179;-89
2024/03/03 07:02:19;;;;;;;30.70;21.10;;;8.30;99.90;;;;;;5049208;28;20425;-91
2024/03/03 07:04:44;;;;;;;30.52;20.65;;;8.50;99.90;;;;;;5051673;28;20444;-88
2024/03/03 07:07:10;;;;;;;28.53;20.20;;;9.00;99.90;;;;;;5052477;28;20203;-89
2024/03/03 07:09:39;;;;;;;27.43;19.70;;;8.80;99.90;;;;;;5050964;28;20179;-88
2024/03/03 07:12:06;;;;;;;27.10;18.67;;;9.40;99.90;;;;;;5034386;28;20244;-89
2024/03/03 07:14:32;;;;;;;26.95;20.38;;;9.10;99.90;;;;;;5055935;28;20261;-89
2024/03/03 07:16:58;;;;;;;28.50;20.77;;;8.70;99.90;;;;;;5053899;28;20217;-89
2024/03/03 07:19:24;;;;;;;24.40;19.07;;;9.40;99.90;;;;;;5069033;28;20187;-89
2024/03/03 07:21:49;;;;;;;32.40;21.40;;;9.80;99.90;;;;;;5060285;28;20569;-89
2024/03/03 07:24:15;;;;;;;27.00;18.03;;;9.70;99.90;;;;;;5063630;28;20202;-89
2024/03/03 07:26:42;;;;;;;26.03;18.60;;;10.20;99.90;;;;;;5067285;28;20202;-89
2024/03/03 07:29:08;;;;;;;24.42;18.58;;;10.10;99.90;;;;;;5075746;28;20260;-90
2024/03/03 07:31:34;;;;;;;26.60;19.95;;;10.00;99.90;;;;;;5071963;28;21006;-88
2024/03/03 07:34:00;;;;;;;24.55;18.42;;;10.20;99.90;;;;;;5066046;28;20240;-89
2024/03/03 07:36:26;;;;;;;26.20;19.07;;;10.50;99.90;;;;;;5072588;28;20266;-90
2024/03/03 07:38:52;;;;;;;25.10;18.83;;;10.70;99.90;;;;;;5043697;28;20185;-89
2024/03/03 07:41:18;;;;;;;27.67;19.30;;;10.40;99.90;;;;;;5046079;28;20191;-89
2024/03/03 07:43:44;;;;;;;26.03;19.63;;;10.50;99.90;;;;;;5056241;28;20191;-89
2024/03/03 07:46:11;;;;;;;27.97;20.13;;;11.20;99.90;;;;;;5063176;28;20201;-90
2024/03/03 07:48:36;;;;;;;23.77;18.58;;;11.30;99.90;;;;;;5048725;28;20201;-89
2024/03/03 07:51:03;;;;;;;22.40;17.77;;;11.10;99.90;;;;;;5066465;28;20192;-89
2024/03/03 07:53:29;;;;;;;26.92;19.80;;;11.30;99.90;;;;;;5065974;28;20223;-89
2024/03/03 07:55:55;;;;;;;27.33;20.70;;;11.00;99.90;;;;;;5067253;28;20278;-90
2024/03/03 07:58:20;;;;;;;24.30;19.97;;;11.00;99.90;;;;;;5064537;28;20192;-89
2024/03/03 08:00:46;;;;;;;25.30;19.97;;;11.20;99.90;;;;;;5044170;28;20180;-89
2024/03/03 08:03:12;;;;;;;25.83;18.90;;;;;;;;;;5050300;28;20199;-89
2024/03/03 08:05:38;;;;;;;26.30;18.92;;;11.00;99.90;;;;;;5076724;28;20469;-90
2024/03/03 08:08:05;;;;;;;28.97;19.60;;;11.30;99.90;;;;;;5070816;28;20270;-89
2024/03/03 08:10:32;;;;;;;25.52;19.15;;;9.70;99.90;;;;;;5068282;28;20184;-90
2024/03/03 08:12:57;;;;;;;26.08;20.30;;;11.20;99.90;;;;;;5067631;28;20212;-89
2024/03/03 08:15:24;;;;;;;26.70;20.05;;;11.30;99.90;;;;;;5074271;28;20207;-89
2024/03/03 08:17:50;;;;;;;30.45;18.83;;;11.30;99.90;;;;;;5072492;28;20185;-89
2024/03/03 08:20:16;;;;;;;25.23;18.63;;;11.30;99.90;;;;;;5064134;28;20196;-89
2024/03/03 08:22:42;;;;;;;24.33;18.57;;;11.50;99.90;;;;;;5070966;28;20547;-89
2024/03/03 08:25:09;;;;;;;24.60;18.92;;;11.40;99.90;;;;;;5071510;28;20187;-89
2024/03/03 08:27:35;;;;;;;24.58;19.27;;;11.60;99.90;;;;;;5073971;28;20192;-89
2024/03/03 08:30:05;;;;;;;25.67;20.40;;;11.90;99.90;;;;;;5077168;28;20768;-89
2024/03/03 08:32:32;;;;;;;29.08;21.70;;;11.60;99.90;;;;;;5069730;28;20185;-89
2024/03/03 08:35:01;;;;;;;29.70;22.17;;;12.00;99.90;;;;;;5067827;28;20192;-91
2024/03/03 08:37:27;;;;;;;24.75;18.40;;;12.00;99.90;;;;;;5060135;28;20182;-89
2024/03/03 08:39:54;;;;;;;26.77;20.33;;;12.20;99.90;;;;;;5060540;28;20182;-91
2024/03/03 08:42:19;;;;;;;28.08;20.35;;;12.60;99.90;;;;;;5065806;28;20239;-91
2024/03/03 08:44:45;;;;;;;28.43;20.67;;;12.60;99.90;;;;;;5056320;28;20181;-91
2024/03/03 08:47:10;;;;;;;24.07;18.67;;;12.20;99.90;;;;;;5055362;28;20197;-90
2024/03/03 08:49:36;;;;;;;22.93;18.87;;;12.50;99.90;;;;;;5058059;28;20213;-90
2024/03/03 08:52:02;;;;;;;23.70;18.50;;;12.80;99.90;;;;;;5058967;28;20277;-90
2024/03/03 08:54:29;;;;;;;25.40;19.08;;;13.00;99.90;;;;;;5062075;28;20201;-90
2024/03/03 08:56:55;;;;;;;24.60;18.75;;;12.30;99.90;;;;;;5060206;28;20265;-89
2024/03/03 08:59:20;;;;;;;27.07;19.07;;;12.80;99.90;;;;;;5051674;28;20610;-89
2024/03/03 09:01:46;;;;;;;22.47;17.87;;;12.60;99.90;;;;;;5052357;28;20443;-90
2024/03/03 09:04:11;;;;;;;27.53;20.43;;;12.80;99.90;;;;;;5052771;28;20197;-90
2024/03/03 09:06:37;;;;;;;23.10;19.60;;;12.50;99.90;;;;;;5051189;28;20206;-91
2024/03/03 09:09:04;;;;;;;25.97;19.53;;;12.30;99.90;;;;;;5052778;28;21736;-91
2024/03/03 09:11:32;;;;;;;25.92;19.42;;;12.70;99.90;;;;;;5052368;28;20432;-90
2024/03/03 09:13:58;;;;;;;26.40;19.10;;;13.00;99.90;;;;;;5048663;28;20270;-91
2024/03/03 09:16:24;;;;;;;23.73;18.33;;;12.70;99.90;;;;;;5054504;28;20209;-91
2024/03/03 09:18:49;;;;;;;23.83;17.73;;;12.90;99.90;;;;;;5046791;28;20279;-91
2024/03/03 09:21:15;;;;;;;24.53;18.70;;;12.40;99.90;;;;;;5036121;28;20216;-91
2024/03/03 09:23:41;;;;;;;24.80;18.17;;;12.50;99.90;;;;;;5036072;28;20193;-91
2024/03/03 09:26:06;;;;;;;25.80;18.77;;;12.70;99.90;;;;;;5056679;28;20590;-90
2024/03/03 09:28:32;;;;;;;24.87;18.00;;;13.10;99.90;;;;;;5056938;28;20643;-91
2024/03/03 09:30:58;;;;;;;25.70;19.60;;;12.60;99.90;;;;;;5052400;28;20205;-92
2024/03/03 09:33:25;;;;;;;25.63;19.10;;;12.60;99.90;;;;;;5062600;28;20212;-91
2024/03/03 09:35:52;;;;;;;26.35;18.88;;;12.60;99.90;;;;;;5039356;28;20472;-91
2024/03/03 09:38:18;;;;;;;23.88;17.70;;;12.70;99.90;;;;;;5054843;28;20722;-91
2024/03/03 09:40:44;;;;;;;25.67;18.70;;;13.00;99.90;;;;;;5031396;28;20276;-90
2024/03/03 09:43:14;;;;;;;24.58;20.00;;;13.20;99.90;;;;;;5050556;28;20177;-89
2024/03/03 09:45:40;;;;;;;27.98;20.83;;;12.80;99.90;;;;;;5049222;28;20588;-91
2024/03/03 09:48:08;;;;;;;22.40;17.67;;;13.00;99.90;;;;;;5048405;28;20189;-90
2024/03/03 09:50:34;;;;;;;24.30;19.27;;;13.40;99.90;;;;;;5049141;28;20463;-91
2024/03/03 09:53:02;;;;;;;24.58;19.23;;;14.00;99.80;;;;;;5049929;28;20310;-90
2024/03/03 09:55:29;;;;;;;22.30;18.50;;;13.80;99.20;;;;;;5057223;28;20218;-90
2024/03/03 09:57:55;;;;;;;24.10;19.35;;;13.90;98.70;;;;;;5049277;28;20214;-90
2024/03/03 10:00:22;;;;;;;23.40;18.07;;;14.60;98.70;;;;;;5046122;28;20221;-91
2024/03/03 10:02:48;;;;;;;24.05;19.10;;;15.30;97.70;;;;;;5050248;28;20181;-89
2024/03/03 10:05:15;;;;;;;20.40;17.13;;;15.80;95.60;;;;;;5051272;28;20185;-89
2024/03/03 10:07:51;;;;;;;22.33;17.15;;;16.20;95.30;;;;;;5048393;28;20451;-91
2024/03/03 10:10:25;;;;;;;22.77;18.52;;;16.70;94.50;;;;;;5036821;28;20201;-91
2024/03/03 10:12:52;;;;;;;22.05;18.00;;;16.90;91.90;;;;;;5046866;28;20209;-90
2024/03/03 10:15:20;;;;;;;20.27;17.95;;;16.40;92.90;;;;;;5049024;28;20197;-90
2024/03/03 10:17:47;;;;;;;22.27;18.30;;;16.50;92.90;;;;;;5049825;28;20272;-90
2024/03/03 10:20:13;;;;;;;21.02;17.33;;;17.50;93.10;;;;;;5050297;28;20181;-89
2024/03/03 10:22:40;;;;;;;23.03;19.93;;;18.10;91.20;;;;;;5050105;28;20182;-90
2024/03/03 10:25:10;;;;;;;19.75;17.40;;;18.20;88.40;;;;;;5049542;28;20209;-90
2024/03/03 10:27:37;;;;;;;21.90;16.98;;;18.90;87.40;;;;;;5064668;28;20272;-91
2024/03/03 10:30:07;;;;;;;20.08;17.02;;;19.60;84.80;;;;;;5045815;28;20185;-90
2024/03/03 10:32:34;;;;;;;19.35;16.48;;;18.60;83.50;;;;;;5049945;28;20544;-90
2024/03/03 10:35:00;;;;;;;22.58;18.40;;;17.90;87.60;;;;;;5049002;28;20192;-90
2024/03/03 10:37:27;;;;;;;21.50;17.13;;;17.70;88.50;;;;;;5047583;28;20196;-91
2024/03/03 10:39:53;;;;;;;22.20;17.55;;;17.00;89.80;;;;;;5047652;28;20178;-89
2024/03/03 10:42:18;;;;;;;19.80;16.40;;;16.50;90.60;;;;;;5046792;28;20750;-90
2024/03/03 10:44:45;;;;;;;18.80;16.40;;;16.40;91.60;;;;;;5047846;28;20186;-91
2024/03/03 10:47:13;;;;;;;19.55;16.27;;;16.70;91.00;;;;;;5048579;28;20292;-91
2024/03/03 10:49:42;;;;;;;21.33;16.95;;;16.60;90.70;;;;;;5049797;28;20189;-91
2024/03/03 10:52:09;;;;;;;17.58;15.40;;;17.00;90.90;;;;;;5097477;22;20243;-84
2024/03/03 10:54:35;;;;;;;19.35;16.20;;;17.30;90.80;;;;;;5096135;28;20660;-83
2024/03/03 10:57:01;;;;;;;19.20;16.23;;;17.00;90.10;;;;;;5094225;28;20210;-84
2024/03/03 10:59:29;;;;;;;18.10;15.57;;;17.00;90.20;;;;;;5078103;28;20443;-84
2024/03/03 11:01:56;;;;;;;18.73;15.88;;;17.70;90.50;;;;;;5078386;28;20177;-83
2024/03/03 11:04:29;;;;;;;19.42;16.40;;;17.20;89.80;;;;;;5077501;28;20620;-83
2024/03/03 11:06:58;;;;;;;18.75;16.55;;;17.00;89.30;;;;;;5088189;28;20204;-83
2024/03/03 11:09:25;;;;;;;16.30;14.52;;;17.00;91.40;;;;;;5074100;28;20196;-83
2024/03/03 11:12:03;;;;;;;18.02;16.10;;;16.80;90.60;;;;;;5078630;28;20251;-84
2024/03/03 11:14:32;;;;;;;15.18;13.68;;;16.70;90.50;;;;;;5079728;28;20212;-84
2024/03/03 11:17:03;;;;;;;17.27;14.82;;;17.10;89.60;;;;;;5076926;28;20205;-83
2024/03/03 11:19:40;;;;;;;17.88;15.98;;;17.40;89.80;;;;;;5093117;28;20579;-84
2024/03/03 11:22:10;;;;;;;17.95;15.80;;;17.20;88.70;;;;;;5079834;28;20181;-84
2024/03/03 11:24:41;;;;;;;16.30;14.20;;;18.10;89.30;;;;;;5080416;28;20663;-84
2024/03/03 11:27:13;;;;;;;15.68;14.05;;;17.90;87.90;;;;;;5074818;28;20204;-83
2024/03/03 11:29:40;;;;;;;15.15;13.23;;;18.20;87.50;;;;;;5073936;28;20181;-84
2024/03/03 11:32:09;;;;;;;16.85;15.15;;;17.60;87.30;;;;;;5079718;28;20279;-82
2024/03/03 11:34:35;;;;;;;15.63;13.82;;;17.40;88.20;;;;;;5081162;28;20213;-84
2024/03/03 11:37:01;;;;;;;14.02;12.60;;;18.10;88.40;;;;;;5078122;28;20205;-83
2024/03/03 11:39:27;;;;;;;15.00;13.20;;;17.50;87.60;;;;;;5079842;28;20219;-83
2024/03/03 11:41:53;;;;;;;14.00;12.35;;;18.10;87.80;;;;;;5074676;28;20530;-84
2024/03/03 11:44:34;;;;;;;16.60;13.63;;;17.80;86.50;;;;;;5077305;28;20665;-83
2024/03/03 11:47:04;;;;;;;14.93;13.25;;;17.10;86.80;;;;;;5083333;28;20247;-83
2024/03/03 11:49:31;;;;;;;14.85;13.10;;;17.50;87.10;;;;;;5075056;28;20176;-84
2024/03/03 11:51:57;;;;;;;14.10;12.55;;;16.70;88.10;;;;;;5074307;28;20189;-83
2024/03/03 11:54:38;;;;;;;13.20;11.70;;;17.30;88.70;;;;;;5070025;28;20217;-83
2024/03/03 11:57:05;;;;;;;12.95;11.65;;;17.10;87.90;;;;;;5075771;28;20204;-84
2024/03/03 11:59:45;;;;;;;12.27;11.07;;;17.60;87.40;;;;;;5077586;28;20653;-83
2024/03/03 12:02:16;;;;;;;12.80;11.18;;;18.30;87.30;;;;;;5075403;28;20249;-84
2024/03/03 12:04:46;;;;;;;12.00;10.77;;;17.70;85.60;;;;;;5076031;28;20272;-83
2024/03/03 12:07:15;;;;;;;11.95;10.75;;;17.80;85.70;;;;;;5070969;28;20681;-84
2024/03/03 12:09:43;;;;;;;13.20;11.80;;;17.80;86.50;;;;;;5072545;28;20177;-84
2024/03/03 12:12:09;;;;;;;15.45;12.05;;;17.50;88.10;;;;;;5076404;28;20235;-83
2024/03/03 12:14:37;;;;;;;13.63;12.15;;;17.80;87.90;;;;;;5077024;28;20211;-83
2024/03/03 12:17:05;;;;;;;13.38;11.32;;;17.90;87.40;;;;;;5077572;28;20227;-84
2024/03/03 12:19:37;;;;;;;14.98;11.95;;;19.10;86.60;;;;;;5074525;28;20173;-84
2024/03/03 12:22:03;;;;;;;11.25;9.90;;;17.90;85.60;;;;;;5076805;28;20188;-84
2024/03/03 12:24:29;;;;;;;12.85;11.13;;;18.00;85.30;;;;;;5073202;28;20182;-83
2024/03/03 12:26:54;;;;;;;10.10;9.10;;;17.90;84.10;;;;;;5077337;28;20279;-84
2024/03/03 12:29:20;;;;;;;11.57;10.37;;;18.80;86.10;;;;;;5078932;28;20189;-85
2024/03/03 12:31:46;;;;;;;11.80;10.53;;;18.50;85.60;;;;;;5077983;28;20254;-83
2024/03/03 12:34:12;;;;;;;10.55;9.55;;;18.30;85.80;;;;;;5078923;28;20485;-84
2024/03/03 12:36:38;;;;;;;10.70;9.70;;;17.70;84.70;;;;;;5081970;28;20201;-83
2024/03/03 12:39:08;;;;;;;11.93;10.77;;;18.40;86.50;;;;;;5081304;28;20204;-83
2024/03/03 12:41:34;;;;;;;11.38;10.20;;;17.90;86.00;;;;;;5069642;28;20181;-83
2024/03/03 12:44:00;;;;;;;11.38;10.27;;;18.40;87.10;;;;;;5076492;28;20275;-83
2024/03/03 12:46:29;;;;;;;10.40;9.30;;;18.10;86.30;;;;;;5076857;28;20201;-84
2024/03/03 12:48:54;;;;;;;9.98;8.98;;;18.60;85.20;;;;;;5075500;28;20193;-83
2024/03/03 12:51:20;;;;;;;9.47;8.43;;;18.80;84.90;;;;;;5075342;28;20201;-84